sensor_id;sensor_type;location;lat;lon;timestamp;P1;durP1;ratioP1;P2;durP2;ratioP2
68633;SDS011;55625;47.072;22.192;2023-01-26T00:01:10;9.27;;;4.88;;
68633;SDS011;55625;47.072;22.192;2023-01-26T00:03:39;6.97;;;3.65;;
68633;SDS011;55625;47.072;22.192;2023-01-26T00:06:06;4.03;;;3.35;;
68633;SDS011;55625;47.072;22.192;2023-01-26T00:08:36;6.50;;;3.63;;
68633;SDS011;55625;47.072;22.192;2023-01-26T00:11:08;4.93;;;2.97;;
68633;SDS011;55625;47.072;22.192;2023-01-26T00:13:36;10.77;;;4.03;;
68633;SDS011;55625;47.072;22.192;2023-01-26T00:16:03;6.10;;;4.45;;
68633;SDS011;55625;47.072;22.192;2023-01-26T00:18:33;9.93;;;3.75;;
68633;SDS011;55625;47.072;22.192;2023-01-26T00:21:01;8.05;;;3.53;;
68633;SDS011;55625;47.072;22.192;2023-01-26T00:23:28;6.97;;;4.53;;
68633;SDS011;55625;47.072;22.192;2023-01-26T00:25:56;6.93;;;3.60;;
68633;SDS011;55625;47.072;22.192;2023-01-26T00:28:22;9.07;;;4.50;;
68633;SDS011;55625;47.072;22.192;2023-01-26T00:30:48;10.70;;;3.90;;
68633;SDS011;55625;47.072;22.192;2023-01-26T00:33:14;7.80;;;4.83;;
68633;SDS011;55625;47.072;22.192;2023-01-26T00:35:40;8.98;;;2.95;;
68633;SDS011;55625;47.072;22.192;2023-01-26T00:38:12;5.15;;;4.18;;
68633;SDS011;55625;47.072;22.192;2023-01-26T00:40:38;5.47;;;4.55;;
68633;SDS011;55625;47.072;22.192;2023-01-26T00:43:04;12.05;;;4.38;;
68633;SDS011;55625;47.072;22.192;2023-01-26T00:45:31;12.60;;;6.03;;
68633;SDS011;55625;47.072;22.192;2023-01-26T00:47:58;15.63;;;5.95;;
68633;SDS011;55625;47.072;22.192;2023-01-26T00:50:24;6.68;;;4.53;;
68633;SDS011;55625;47.072;22.192;2023-01-26T00:52:50;11.30;;;5.65;;
68633;SDS011;55625;47.072;22.192;2023-01-26T00:55:17;12.88;;;5.57;;
68633;SDS011;55625;47.072;22.192;2023-01-26T00:57:44;9.80;;;5.57;;
68633;SDS011;55625;47.072;22.192;2023-01-26T01:00:10;8.63;;;4.63;;
68633;SDS011;55625;47.072;22.192;2023-01-26T01:02:40;8.07;;;3.53;;
68633;SDS011;55625;47.072;22.192;2023-01-26T01:05:07;11.18;;;5.97;;
68633;SDS011;55625;47.072;22.192;2023-01-26T01:07:33;4.13;;;2.70;;
68633;SDS011;55625;47.072;22.192;2023-01-26T01:09:59;9.00;;;5.03;;
68633;SDS011;55625;47.072;22.192;2023-01-26T01:12:25;9.75;;;2.42;;
68633;SDS011;55625;47.072;22.192;2023-01-26T01:14:52;3.58;;;2.28;;
68633;SDS011;55625;47.072;22.192;2023-01-26T01:17:17;4.63;;;2.57;;
68633;SDS011;55625;47.072;22.192;2023-01-26T01:19:43;9.35;;;2.83;;
68633;SDS011;55625;47.072;22.192;2023-01-26T01:22:09;7.10;;;2.30;;
68633;SDS011;55625;47.072;22.192;2023-01-26T01:24:35;3.90;;;2.00;;
68633;SDS011;55625;47.072;22.192;2023-01-26T01:27:01;8.57;;;3.42;;
68633;SDS011;55625;47.072;22.192;2023-01-26T01:29:27;7.78;;;1.95;;
68633;SDS011;55625;47.072;22.192;2023-01-26T01:31:53;3.17;;;2.57;;
68633;SDS011;55625;47.072;22.192;2023-01-26T01:34:19;3.35;;;2.45;;
68633;SDS011;55625;47.072;22.192;2023-01-26T01:36:45;6.65;;;2.78;;
68633;SDS011;55625;47.072;22.192;2023-01-26T01:39:11;6.70;;;2.75;;
68633;SDS011;55625;47.072;22.192;2023-01-26T01:41:37;16.27;;;4.27;;
68633;SDS011;55625;47.072;22.192;2023-01-26T01:44:10;3.20;;;2.55;;
68633;SDS011;55625;47.072;22.192;2023-01-26T01:46:37;3.60;;;2.05;;
68633;SDS011;55625;47.072;22.192;2023-01-26T01:49:12;4.00;;;2.72;;
68633;SDS011;55625;47.072;22.192;2023-01-26T01:54:42;17.15;;;1.42;;
68633;SDS011;55625;47.072;22.192;2023-01-26T01:57:19;4.63;;;1.67;;
68633;SDS011;55625;47.072;22.192;2023-01-26T02:00:07;9.70;;;2.83;;
68633;SDS011;55625;47.072;22.192;2023-01-26T02:02:36;4.20;;;3.15;;
68633;SDS011;55625;47.072;22.192;2023-01-26T02:05:06;6.60;;;2.80;;
68633;SDS011;55625;47.072;22.192;2023-01-26T02:07:45;5.10;;;3.05;;
68633;SDS011;55625;47.072;22.192;2023-01-26T02:10:11;3.63;;;1.77;;
68633;SDS011;55625;47.072;22.192;2023-01-26T02:12:43;3.35;;;2.08;;
68633;SDS011;55625;47.072;22.192;2023-01-26T02:15:14;3.85;;;2.78;;
68633;SDS011;55625;47.072;22.192;2023-01-26T02:17:40;1.97;;;1.27;;
68633;SDS011;55625;47.072;22.192;2023-01-26T02:20:07;4.57;;;2.83;;
68633;SDS011;55625;47.072;22.192;2023-01-26T02:22:47;3.35;;;2.35;;
68633;SDS011;55625;47.072;22.192;2023-01-26T02:28:18;4.27;;;1.77;;
68633;SDS011;55625;47.072;22.192;2023-01-26T02:30:48;2.67;;;1.80;;
68633;SDS011;55625;47.072;22.192;2023-01-26T02:33:18;3.85;;;2.92;;
68633;SDS011;55625;47.072;22.192;2023-01-26T02:35:46;13.27;;;2.65;;
68633;SDS011;55625;47.072;22.192;2023-01-26T02:38:11;5.00;;;2.97;;
68633;SDS011;55625;47.072;22.192;2023-01-26T02:40:45;3.27;;;2.20;;
68633;SDS011;55625;47.072;22.192;2023-01-26T02:43:20;6.45;;;3.03;;
68633;SDS011;55625;47.072;22.192;2023-01-26T02:45:50;4.82;;;2.20;;
68633;SDS011;55625;47.072;22.192;2023-01-26T02:48:16;4.43;;;2.08;;
68633;SDS011;55625;47.072;22.192;2023-01-26T02:51:01;4.53;;;1.83;;
68633;SDS011;55625;47.072;22.192;2023-01-26T02:53:27;10.23;;;4.25;;
68633;SDS011;55625;47.072;22.192;2023-01-26T02:55:53;5.15;;;2.92;;
68633;SDS011;55625;47.072;22.192;2023-01-26T02:58:19;7.50;;;1.88;;
68633;SDS011;55625;47.072;22.192;2023-01-26T03:00:45;6.27;;;3.47;;
68633;SDS011;55625;47.072;22.192;2023-01-26T03:03:12;4.43;;;2.13;;
68633;SDS011;55625;47.072;22.192;2023-01-26T03:06:05;6.25;;;2.55;;
68633;SDS011;55625;47.072;22.192;2023-01-26T03:08:33;3.20;;;2.07;;
68633;SDS011;55625;47.072;22.192;2023-01-26T03:10:59;4.70;;;2.50;;
68633;SDS011;55625;47.072;22.192;2023-01-26T03:13:25;4.38;;;2.00;;
68633;SDS011;55625;47.072;22.192;2023-01-26T03:15:51;4.55;;;2.10;;
68633;SDS011;55625;47.072;22.192;2023-01-26T03:18:18;8.57;;;3.77;;
68633;SDS011;55625;47.072;22.192;2023-01-26T03:21:06;4.10;;;1.75;;
68633;SDS011;55625;47.072;22.192;2023-01-26T03:23:59;6.22;;;2.88;;
68633;SDS011;55625;47.072;22.192;2023-01-26T03:26:44;4.63;;;1.55;;
68633;SDS011;55625;47.072;22.192;2023-01-26T03:29:29;2.88;;;1.13;;
68633;SDS011;55625;47.072;22.192;2023-01-26T03:31:56;5.03;;;2.50;;
68633;SDS011;55625;47.072;22.192;2023-01-26T03:34:23;4.65;;;2.95;;
68633;SDS011;55625;47.072;22.192;2023-01-26T03:36:50;3.67;;;2.25;;
68633;SDS011;55625;47.072;22.192;2023-01-26T03:39:15;5.03;;;2.10;;
68633;SDS011;55625;47.072;22.192;2023-01-26T03:42:00;4.13;;;2.20;;
68633;SDS011;55625;47.072;22.192;2023-01-26T03:44:44;3.22;;;1.65;;
68633;SDS011;55625;47.072;22.192;2023-01-26T03:47:32;8.07;;;2.22;;
68633;SDS011;55625;47.072;22.192;2023-01-26T03:50:18;2.67;;;1.33;;
68633;SDS011;55625;47.072;22.192;2023-01-26T03:53:11;4.18;;;2.42;;
68633;SDS011;55625;47.072;22.192;2023-01-26T03:55:57;3.13;;;1.53;;
68633;SDS011;55625;47.072;22.192;2023-01-26T03:58:42;2.67;;;1.05;;
68633;SDS011;55625;47.072;22.192;2023-01-26T04:01:09;6.65;;;2.03;;
68633;SDS011;55625;47.072;22.192;2023-01-26T04:03:44;4.70;;;2.20;;
68633;SDS011;55625;47.072;22.192;2023-01-26T04:06:32;3.10;;;2.58;;
68633;SDS011;55625;47.072;22.192;2023-01-26T04:09:19;3.53;;;1.90;;
68633;SDS011;55625;47.072;22.192;2023-01-26T04:11:45;2.85;;;1.58;;
68633;SDS011;55625;47.072;22.192;2023-01-26T04:14:12;4.15;;;1.92;;
68633;SDS011;55625;47.072;22.192;2023-01-26T04:16:58;3.60;;;2.13;;
68633;SDS011;55625;47.072;22.192;2023-01-26T04:19:44;4.40;;;2.20;;
68633;SDS011;55625;47.072;22.192;2023-01-26T04:22:29;2.60;;;0.90;;
68633;SDS011;55625;47.072;22.192;2023-01-26T04:24:55;2.20;;;1.27;;
68633;SDS011;55625;47.072;22.192;2023-01-26T04:27:21;4.60;;;2.65;;
68633;SDS011;55625;47.072;22.192;2023-01-26T04:29:48;4.18;;;2.35;;
68633;SDS011;55625;47.072;22.192;2023-01-26T04:32:14;6.00;;;2.57;;
68633;SDS011;55625;47.072;22.192;2023-01-26T04:34:40;2.65;;;1.65;;
68633;SDS011;55625;47.072;22.192;2023-01-26T04:37:05;4.43;;;2.17;;
68633;SDS011;55625;47.072;22.192;2023-01-26T04:39:33;2.13;;;1.80;;
68633;SDS011;55625;47.072;22.192;2023-01-26T04:41:58;7.78;;;2.97;;
68633;SDS011;55625;47.072;22.192;2023-01-26T04:44:24;4.53;;;2.80;;
68633;SDS011;55625;47.072;22.192;2023-01-26T04:46:50;3.50;;;2.30;;
68633;SDS011;55625;47.072;22.192;2023-01-26T04:49:16;4.57;;;1.63;;
68633;SDS011;55625;47.072;22.192;2023-01-26T04:51:42;3.95;;;1.48;;
68633;SDS011;55625;47.072;22.192;2023-01-26T04:54:08;6.07;;;4.90;;
68633;SDS011;55625;47.072;22.192;2023-01-26T04:56:34;7.97;;;2.80;;
68633;SDS011;55625;47.072;22.192;2023-01-26T04:59:01;2.00;;;1.10;;
68633;SDS011;55625;47.072;22.192;2023-01-26T05:01:30;5.30;;;3.75;;
68633;SDS011;55625;47.072;22.192;2023-01-26T05:04:00;5.00;;;2.97;;
68633;SDS011;55625;47.072;22.192;2023-01-26T05:06:28;4.50;;;3.93;;
68633;SDS011;55625;47.072;22.192;2023-01-26T05:08:55;3.10;;;2.35;;
68633;SDS011;55625;47.072;22.192;2023-01-26T05:11:22;5.25;;;2.88;;
68633;SDS011;55625;47.072;22.192;2023-01-26T05:13:48;3.58;;;2.35;;
68633;SDS011;55625;47.072;22.192;2023-01-26T05:16:14;2.93;;;1.07;;
68633;SDS011;55625;47.072;22.192;2023-01-26T05:18:41;3.42;;;1.60;;
68633;SDS011;55625;47.072;22.192;2023-01-26T05:21:08;5.05;;;1.63;;
68633;SDS011;55625;47.072;22.192;2023-01-26T05:23:35;3.97;;;2.42;;
68633;SDS011;55625;47.072;22.192;2023-01-26T05:26:01;4.68;;;2.28;;
68633;SDS011;55625;47.072;22.192;2023-01-26T05:28:28;2.60;;;1.40;;
68633;SDS011;55625;47.072;22.192;2023-01-26T05:30:54;2.05;;;1.17;;
68633;SDS011;55625;47.072;22.192;2023-01-26T05:33:20;4.88;;;2.38;;
68633;SDS011;55625;47.072;22.192;2023-01-26T05:35:47;7.95;;;2.65;;
68633;SDS011;55625;47.072;22.192;2023-01-26T05:38:14;4.57;;;1.77;;
68633;SDS011;55625;47.072;22.192;2023-01-26T05:40:40;3.83;;;2.20;;
68633;SDS011;55625;47.072;22.192;2023-01-26T05:43:05;6.30;;;3.88;;
68633;SDS011;55625;47.072;22.192;2023-01-26T05:45:32;7.43;;;2.72;;
68633;SDS011;55625;47.072;22.192;2023-01-26T05:47:59;3.88;;;2.10;;
68633;SDS011;55625;47.072;22.192;2023-01-26T05:50:25;4.20;;;2.37;;
68633;SDS011;55625;47.072;22.192;2023-01-26T05:52:51;2.53;;;1.67;;
68633;SDS011;55625;47.072;22.192;2023-01-26T05:55:17;9.13;;;2.38;;
68633;SDS011;55625;47.072;22.192;2023-01-26T05:57:43;3.77;;;1.40;;
68633;SDS011;55625;47.072;22.192;2023-01-26T06:00:09;4.60;;;1.75;;
68633;SDS011;55625;47.072;22.192;2023-01-26T06:02:36;5.50;;;1.88;;
68633;SDS011;55625;47.072;22.192;2023-01-26T06:05:02;2.15;;;1.45;;
68633;SDS011;55625;47.072;22.192;2023-01-26T06:07:29;8.90;;;2.42;;
68633;SDS011;55625;47.072;22.192;2023-01-26T06:09:55;2.33;;;1.40;;
68633;SDS011;55625;47.072;22.192;2023-01-26T06:12:21;3.50;;;1.20;;
68633;SDS011;55625;47.072;22.192;2023-01-26T06:14:47;7.90;;;3.10;;
68633;SDS011;55625;47.072;22.192;2023-01-26T06:17:15;5.20;;;2.40;;
68633;SDS011;55625;47.072;22.192;2023-01-26T06:19:42;3.43;;;2.03;;
68633;SDS011;55625;47.072;22.192;2023-01-26T06:22:08;3.22;;;1.80;;
68633;SDS011;55625;47.072;22.192;2023-01-26T06:24:36;3.35;;;2.63;;
68633;SDS011;55625;47.072;22.192;2023-01-26T06:27:02;5.65;;;3.13;;
68633;SDS011;55625;47.072;22.192;2023-01-26T06:29:30;6.47;;;3.15;;
68633;SDS011;55625;47.072;22.192;2023-01-26T06:31:58;5.97;;;2.43;;
68633;SDS011;55625;47.072;22.192;2023-01-26T06:34:24;8.45;;;2.58;;
68633;SDS011;55625;47.072;22.192;2023-01-26T06:36:50;5.72;;;2.60;;
68633;SDS011;55625;47.072;22.192;2023-01-26T06:39:16;9.95;;;6.60;;
68633;SDS011;55625;47.072;22.192;2023-01-26T06:41:42;44.63;;;19.87;;
68633;SDS011;55625;47.072;22.192;2023-01-26T06:44:08;24.98;;;11.73;;
68633;SDS011;55625;47.072;22.192;2023-01-26T06:46:35;21.15;;;12.07;;
68633;SDS011;55625;47.072;22.192;2023-01-26T06:49:02;18.65;;;9.63;;
68633;SDS011;55625;47.072;22.192;2023-01-26T06:51:45;17.33;;;8.57;;
68633;SDS011;55625;47.072;22.192;2023-01-26T06:54:52;18.47;;;9.40;;
68633;SDS011;55625;47.072;22.192;2023-01-26T06:57:18;3.80;;;2.47;;
68633;SDS011;55625;47.072;22.192;2023-01-26T06:59:44;7.28;;;3.38;;
68633;SDS011;55625;47.072;22.192;2023-01-26T07:02:14;4.67;;;2.50;;
68633;SDS011;55625;47.072;22.192;2023-01-26T07:04:43;3.92;;;2.78;;
68633;SDS011;55625;47.072;22.192;2023-01-26T07:07:10;4.38;;;2.22;;
68633;SDS011;55625;47.072;22.192;2023-01-26T07:09:36;3.45;;;2.53;;
68633;SDS011;55625;47.072;22.192;2023-01-26T07:12:02;10.38;;;6.47;;
68633;SDS011;55625;47.072;22.192;2023-01-26T07:14:29;13.17;;;7.47;;
68633;SDS011;55625;47.072;22.192;2023-01-26T07:16:56;17.92;;;7.70;;
68633;SDS011;55625;47.072;22.192;2023-01-26T07:19:22;8.68;;;6.68;;
68633;SDS011;55625;47.072;22.192;2023-01-26T07:21:48;10.65;;;7.38;;
68633;SDS011;55625;47.072;22.192;2023-01-26T07:24:14;17.33;;;6.40;;
68633;SDS011;55625;47.072;22.192;2023-01-26T07:26:40;14.95;;;4.53;;
68633;SDS011;55625;47.072;22.192;2023-01-26T07:29:05;20.43;;;8.13;;
68633;SDS011;55625;47.072;22.192;2023-01-26T07:31:31;17.08;;;8.65;;
68633;SDS011;55625;47.072;22.192;2023-01-26T07:33:57;18.85;;;9.13;;
68633;SDS011;55625;47.072;22.192;2023-01-26T07:36:23;15.37;;;8.07;;
68633;SDS011;55625;47.072;22.192;2023-01-26T07:38:49;14.25;;;9.13;;
68633;SDS011;55625;47.072;22.192;2023-01-26T07:41:14;7.50;;;5.47;;
68633;SDS011;55625;47.072;22.192;2023-01-26T07:43:40;14.23;;;7.25;;
68633;SDS011;55625;47.072;22.192;2023-01-26T07:46:06;7.20;;;5.10;;
68633;SDS011;55625;47.072;22.192;2023-01-26T07:48:34;7.13;;;5.30;;
68633;SDS011;55625;47.072;22.192;2023-01-26T07:51:01;11.30;;;4.55;;
68633;SDS011;55625;47.072;22.192;2023-01-26T07:53:28;8.27;;;4.53;;
68633;SDS011;55625;47.072;22.192;2023-01-26T07:56:04;7.50;;;4.07;;
68633;SDS011;55625;47.072;22.192;2023-01-26T07:58:36;16.15;;;6.25;;
68633;SDS011;55625;47.072;22.192;2023-01-26T08:01:03;8.77;;;6.17;;
68633;SDS011;55625;47.072;22.192;2023-01-26T08:03:36;10.02;;;5.07;;
68633;SDS011;55625;47.072;22.192;2023-01-26T08:06:02;11.38;;;8.40;;
68633;SDS011;55625;47.072;22.192;2023-01-26T08:08:29;6.97;;;4.00;;
68633;SDS011;55625;47.072;22.192;2023-01-26T08:10:58;4.57;;;1.90;;
68633;SDS011;55625;47.072;22.192;2023-01-26T08:13:26;7.43;;;2.87;;
68633;SDS011;55625;47.072;22.192;2023-01-26T08:15:52;6.45;;;3.60;;
68633;SDS011;55625;47.072;22.192;2023-01-26T08:18:18;9.18;;;5.05;;
68633;SDS011;55625;47.072;22.192;2023-01-26T08:20:51;3.25;;;2.53;;
68633;SDS011;55625;47.072;22.192;2023-01-26T08:23:18;6.68;;;1.75;;
68633;SDS011;55625;47.072;22.192;2023-01-26T08:25:44;4.53;;;2.57;;
68633;SDS011;55625;47.072;22.192;2023-01-26T08:28:10;4.65;;;2.50;;
68633;SDS011;55625;47.072;22.192;2023-01-26T08:30:36;6.13;;;3.20;;
68633;SDS011;55625;47.072;22.192;2023-01-26T08:33:02;6.80;;;3.35;;
68633;SDS011;55625;47.072;22.192;2023-01-26T08:35:32;10.90;;;3.50;;
68633;SDS011;55625;47.072;22.192;2023-01-26T08:37:58;8.32;;;5.30;;
68633;SDS011;55625;47.072;22.192;2023-01-26T08:40:24;9.40;;;4.63;;
68633;SDS011;55625;47.072;22.192;2023-01-26T08:42:51;8.43;;;2.13;;
68633;SDS011;55625;47.072;22.192;2023-01-26T08:45:17;2.00;;;0.82;;
68633;SDS011;55625;47.072;22.192;2023-01-26T08:47:43;2.57;;;1.73;;
68633;SDS011;55625;47.072;22.192;2023-01-26T08:50:12;5.32;;;1.27;;
68633;SDS011;55625;47.072;22.192;2023-01-26T08:52:38;4.82;;;2.13;;
68633;SDS011;55625;47.072;22.192;2023-01-26T08:55:04;3.20;;;1.40;;
68633;SDS011;55625;47.072;22.192;2023-01-26T08:57:30;4.28;;;2.40;;
68633;SDS011;55625;47.072;22.192;2023-01-26T08:59:56;3.17;;;1.55;;
68633;SDS011;55625;47.072;22.192;2023-01-26T09:02:22;2.70;;;0.80;;
68633;SDS011;55625;47.072;22.192;2023-01-26T09:04:47;3.67;;;1.73;;
68633;SDS011;55625;47.072;22.192;2023-01-26T09:07:13;5.43;;;2.13;;
68633;SDS011;55625;47.072;22.192;2023-01-26T09:09:39;5.50;;;2.47;;
68633;SDS011;55625;47.072;22.192;2023-01-26T09:12:05;3.30;;;1.42;;
68633;SDS011;55625;47.072;22.192;2023-01-26T09:14:31;2.97;;;1.90;;
68633;SDS011;55625;47.072;22.192;2023-01-26T09:16:57;3.03;;;1.03;;
68633;SDS011;55625;47.072;22.192;2023-01-26T09:19:22;2.05;;;1.08;;
68633;SDS011;55625;47.072;22.192;2023-01-26T09:21:52;2.55;;;0.77;;
68633;SDS011;55625;47.072;22.192;2023-01-26T09:24:19;4.77;;;1.80;;
68633;SDS011;55625;47.072;22.192;2023-01-26T09:26:46;1.80;;;0.68;;
68633;SDS011;55625;47.072;22.192;2023-01-26T09:29:12;7.25;;;2.75;;
68633;SDS011;55625;47.072;22.192;2023-01-26T09:31:38;14.68;;;4.78;;
68633;SDS011;55625;47.072;22.192;2023-01-26T09:34:04;3.03;;;2.65;;
68633;SDS011;55625;47.072;22.192;2023-01-26T09:36:31;5.97;;;2.10;;
68633;SDS011;55625;47.072;22.192;2023-01-26T09:38:58;2.67;;;1.25;;
68633;SDS011;55625;47.072;22.192;2023-01-26T09:44:23;1.60;;;0.98;;
68633;SDS011;55625;47.072;22.192;2023-01-26T09:53:18;1.77;;;0.95;;
68633;SDS011;55625;47.072;22.192;2023-01-26T09:56:18;4.75;;;3.28;;
68633;SDS011;55625;47.072;22.192;2023-01-26T09:59:18;2.30;;;1.65;;
68633;SDS011;55625;47.072;22.192;2023-01-26T10:02:00;3.85;;;2.95;;
68633;SDS011;55625;47.072;22.192;2023-01-26T10:05:00;7.40;;;1.83;;
68633;SDS011;55625;47.072;22.192;2023-01-26T10:07:35;5.13;;;2.25;;
68633;SDS011;55625;47.072;22.192;2023-01-26T10:10:01;8.48;;;2.67;;
68633;SDS011;55625;47.072;22.192;2023-01-26T10:12:29;2.33;;;1.27;;
68633;SDS011;55625;47.072;22.192;2023-01-26T10:17:45;5.80;;;3.10;;
68633;SDS011;55625;47.072;22.192;2023-01-26T10:23:28;2.28;;;1.65;;
68633;SDS011;55625;47.072;22.192;2023-01-26T10:26:12;3.92;;;2.03;;
68633;SDS011;55625;47.072;22.192;2023-01-26T10:28:47;6.15;;;3.30;;
68633;SDS011;55625;47.072;22.192;2023-01-26T10:31:17;2.23;;;1.30;;
68633;SDS011;55625;47.072;22.192;2023-01-26T10:36:29;5.00;;;2.15;;
68633;SDS011;55625;47.072;22.192;2023-01-26T10:39:09;3.90;;;1.98;;
68633;SDS011;55625;47.072;22.192;2023-01-26T10:41:54;4.18;;;1.73;;
68633;SDS011;55625;47.072;22.192;2023-01-26T10:44:37;3.33;;;2.73;;
68633;SDS011;55625;47.072;22.192;2023-01-26T10:47:16;2.55;;;1.50;;
68633;SDS011;55625;47.072;22.192;2023-01-26T10:49:45;6.82;;;3.55;;
68633;SDS011;55625;47.072;22.192;2023-01-26T10:52:18;2.38;;;1.65;;
68633;SDS011;55625;47.072;22.192;2023-01-26T10:54:47;3.38;;;1.95;;
68633;SDS011;55625;47.072;22.192;2023-01-26T10:57:21;4.27;;;2.17;;
68633;SDS011;55625;47.072;22.192;2023-01-26T10:59:57;4.32;;;2.35;;
68633;SDS011;55625;47.072;22.192;2023-01-26T11:02:33;9.13;;;4.25;;
68633;SDS011;55625;47.072;22.192;2023-01-26T11:07:27;5.63;;;2.17;;
68633;SDS011;55625;47.072;22.192;2023-01-26T11:10:15;3.67;;;2.23;;
68633;SDS011;55625;47.072;22.192;2023-01-26T11:12:44;4.70;;;0.88;;
68633;SDS011;55625;47.072;22.192;2023-01-26T11:15:23;2.45;;;1.45;;
68633;SDS011;55625;47.072;22.192;2023-01-26T11:18:11;4.32;;;2.47;;
68633;SDS011;55625;47.072;22.192;2023-01-26T11:23:41;3.22;;;1.05;;
68633;SDS011;55625;47.072;22.192;2023-01-26T11:44:50;5.68;;;1.88;;
68633;SDS011;55625;47.072;22.192;2023-01-26T11:50:46;6.37;;;2.63;;
68633;SDS011;55625;47.072;22.192;2023-01-26T11:59:16;4.47;;;0.82;;
68633;SDS011;55625;47.072;22.192;2023-01-26T12:02:36;6.43;;;3.20;;
68633;SDS011;55625;47.072;22.192;2023-01-26T12:05:13;2.23;;;1.10;;
68633;SDS011;55625;47.072;22.192;2023-01-26T12:07:59;4.43;;;1.45;;
68633;SDS011;55625;47.072;22.192;2023-01-26T12:22:04;10.00;;;3.08;;
68633;SDS011;55625;47.072;22.192;2023-01-26T12:24:41;3.55;;;1.70;;
68633;SDS011;55625;47.072;22.192;2023-01-26T12:27:45;4.65;;;2.08;;
68633;SDS011;55625;47.072;22.192;2023-01-26T12:33:41;13.43;;;6.30;;
68633;SDS011;55625;47.072;22.192;2023-01-26T12:36:25;11.55;;;4.28;;
68633;SDS011;55625;47.072;22.192;2023-01-26T12:39:11;6.15;;;3.65;;
68633;SDS011;55625;47.072;22.192;2023-01-26T12:41:56;2.53;;;1.45;;
68633;SDS011;55625;47.072;22.192;2023-01-26T12:44:59;9.00;;;4.03;;
68633;SDS011;55625;47.072;22.192;2023-01-26T12:50:20;8.40;;;4.82;;
68633;SDS011;55625;47.072;22.192;2023-01-26T12:53:10;4.95;;;3.92;;
68633;SDS011;55625;47.072;22.192;2023-01-26T12:58:48;5.03;;;3.20;;
68633;SDS011;55625;47.072;22.192;2023-01-26T13:01:17;7.60;;;3.47;;
68633;SDS011;55625;47.072;22.192;2023-01-26T13:03:53;3.85;;;2.10;;
68633;SDS011;55625;47.072;22.192;2023-01-26T13:06:23;6.03;;;3.08;;
68633;SDS011;55625;47.072;22.192;2023-01-26T13:14:32;6.80;;;1.80;;
68633;SDS011;55625;47.072;22.192;2023-01-26T13:19:50;5.05;;;2.38;;
68633;SDS011;55625;47.072;22.192;2023-01-26T13:24:48;8.90;;;4.97;;
68633;SDS011;55625;47.072;22.192;2023-01-26T13:35:14;4.53;;;1.33;;
68633;SDS011;55625;47.072;22.192;2023-01-26T13:40:41;3.67;;;2.38;;
68633;SDS011;55625;47.072;22.192;2023-01-26T13:43:28;5.95;;;4.63;;
68633;SDS011;55625;47.072;22.192;2023-01-26T13:48:47;5.20;;;2.60;;
68633;SDS011;55625;47.072;22.192;2023-01-26T13:51:22;6.53;;;3.57;;
68633;SDS011;55625;47.072;22.192;2023-01-26T13:59:13;4.18;;;2.15;;
68633;SDS011;55625;47.072;22.192;2023-01-26T14:01:45;4.28;;;3.17;;
68633;SDS011;55625;47.072;22.192;2023-01-26T14:04:26;5.60;;;3.43;;
68633;SDS011;55625;47.072;22.192;2023-01-26T14:06:56;9.02;;;4.07;;
68633;SDS011;55625;47.072;22.192;2023-01-26T14:09:32;7.22;;;5.10;;
68633;SDS011;55625;47.072;22.192;2023-01-26T14:12:18;14.55;;;6.97;;
68633;SDS011;55625;47.072;22.192;2023-01-26T14:14:58;6.35;;;4.78;;
68633;SDS011;55625;47.072;22.192;2023-01-26T14:17:33;6.63;;;3.77;;
68633;SDS011;55625;47.072;22.192;2023-01-26T14:20:05;3.85;;;2.38;;
68633;SDS011;55625;47.072;22.192;2023-01-26T14:23:11;6.47;;;2.30;;
68633;SDS011;55625;47.072;22.192;2023-01-26T14:28:32;4.82;;;2.95;;
68633;SDS011;55625;47.072;22.192;2023-01-26T14:33:57;4.88;;;3.13;;
68633;SDS011;55625;47.072;22.192;2023-01-26T14:36:25;3.85;;;1.65;;
68633;SDS011;55625;47.072;22.192;2023-01-26T14:38:54;6.90;;;3.80;;
68633;SDS011;55625;47.072;22.192;2023-01-26T14:41:24;7.07;;;2.85;;
68633;SDS011;55625;47.072;22.192;2023-01-26T14:44:00;5.67;;;4.00;;
68633;SDS011;55625;47.072;22.192;2023-01-26T14:49:15;7.95;;;3.97;;
68633;SDS011;55625;47.072;22.192;2023-01-26T14:51:55;14.40;;;3.35;;
68633;SDS011;55625;47.072;22.192;2023-01-26T14:54:33;9.02;;;2.60;;
68633;SDS011;55625;47.072;22.192;2023-01-26T14:57:03;5.10;;;2.77;;
68633;SDS011;55625;47.072;22.192;2023-01-26T14:59:39;6.32;;;4.75;;
68633;SDS011;55625;47.072;22.192;2023-01-26T15:05:00;7.70;;;3.85;;
68633;SDS011;55625;47.072;22.192;2023-01-26T15:08:00;6.10;;;3.45;;
68633;SDS011;55625;47.072;22.192;2023-01-26T15:11:22;6.27;;;3.70;;
68633;SDS011;55625;47.072;22.192;2023-01-26T15:13:43;3.53;;;2.17;;
68633;SDS011;55625;47.072;22.192;2023-01-26T15:16:16;4.55;;;1.67;;
68633;SDS011;55625;47.072;22.192;2023-01-26T15:19:03;6.47;;;2.85;;
68633;SDS011;55625;47.072;22.192;2023-01-26T15:21:34;11.00;;;4.07;;
68633;SDS011;55625;47.072;22.192;2023-01-26T15:24:03;7.80;;;3.53;;
68633;SDS011;55625;47.072;22.192;2023-01-26T15:26:35;8.40;;;2.65;;
68633;SDS011;55625;47.072;22.192;2023-01-26T15:29:03;4.32;;;2.25;;
68633;SDS011;55625;47.072;22.192;2023-01-26T15:31:41;9.75;;;4.72;;
68633;SDS011;55625;47.072;22.192;2023-01-26T15:37:03;7.03;;;4.03;;
68633;SDS011;55625;47.072;22.192;2023-01-26T15:39:58;3.65;;;2.67;;
68633;SDS011;55625;47.072;22.192;2023-01-26T15:42:25;6.15;;;3.42;;
68633;SDS011;55625;47.072;22.192;2023-01-26T15:44:54;11.20;;;5.18;;
68633;SDS011;55625;47.072;22.192;2023-01-26T15:47:20;5.43;;;2.30;;
68633;SDS011;55625;47.072;22.192;2023-01-26T15:49:46;8.63;;;4.70;;
68633;SDS011;55625;47.072;22.192;2023-01-26T15:52:13;6.07;;;2.65;;
68633;SDS011;55625;47.072;22.192;2023-01-26T15:54:41;6.03;;;3.28;;
68633;SDS011;55625;47.072;22.192;2023-01-26T15:57:08;6.53;;;3.77;;
68633;SDS011;55625;47.072;22.192;2023-01-26T15:59:36;11.20;;;4.65;;
68633;SDS011;55625;47.072;22.192;2023-01-26T16:02:05;4.80;;;3.40;;
68633;SDS011;55625;47.072;22.192;2023-01-26T16:04:40;7.05;;;2.38;;
68633;SDS011;55625;47.072;22.192;2023-01-26T16:07:09;7.68;;;5.07;;
68633;SDS011;55625;47.072;22.192;2023-01-26T16:09:37;10.87;;;5.37;;
68633;SDS011;55625;47.072;22.192;2023-01-26T16:12:03;3.67;;;2.95;;
68633;SDS011;55625;47.072;22.192;2023-01-26T16:14:29;5.32;;;3.78;;
68633;SDS011;55625;47.072;22.192;2023-01-26T16:16:55;4.32;;;2.15;;
68633;SDS011;55625;47.072;22.192;2023-01-26T16:19:21;7.13;;;5.47;;
68633;SDS011;55625;47.072;22.192;2023-01-26T16:21:47;9.90;;;6.63;;
68633;SDS011;55625;47.072;22.192;2023-01-26T16:24:13;4.87;;;3.37;;
68633;SDS011;55625;47.072;22.192;2023-01-26T16:26:39;7.90;;;4.17;;
68633;SDS011;55625;47.072;22.192;2023-01-26T16:29:04;10.30;;;6.32;;
68633;SDS011;55625;47.072;22.192;2023-01-26T16:31:31;12.97;;;6.50;;
68633;SDS011;55625;47.072;22.192;2023-01-26T16:34:00;5.68;;;4.20;;
68633;SDS011;55625;47.072;22.192;2023-01-26T16:36:26;10.60;;;5.30;;
68633;SDS011;55625;47.072;22.192;2023-01-26T16:38:52;6.47;;;4.72;;
68633;SDS011;55625;47.072;22.192;2023-01-26T16:41:25;17.40;;;6.20;;
68633;SDS011;55625;47.072;22.192;2023-01-26T16:43:54;10.40;;;5.47;;
68633;SDS011;55625;47.072;22.192;2023-01-26T16:46:22;10.50;;;7.07;;
68633;SDS011;55625;47.072;22.192;2023-01-26T16:48:48;13.90;;;7.97;;
68633;SDS011;55625;47.072;22.192;2023-01-26T16:53:52;9.87;;;4.57;;
68633;SDS011;55625;47.072;22.192;2023-01-26T16:56:19;19.23;;;7.22;;
68633;SDS011;55625;47.072;22.192;2023-01-26T16:58:47;7.18;;;6.07;;
68633;SDS011;55625;47.072;22.192;2023-01-26T17:04:11;8.35;;;3.88;;